Time;durP1;ratioP1;P1;durP2;ratioP2;P2;SDS_P1;SDS_P2;PMS_P1;PMS_P2;Temp;Humidity;BMP_temperature;BMP_pressure;BME280_temperature;BME280_humidity;BME280_pressure;Samples;Min_cycle;Max_cycle;Signal;HPM_P1;HPM_P2
2021/09/29 00:01:19;;;;;;;0.20;0.20;;;;;;;18.85;70.02;102907.06;5034563;28;20021;-71
2021/09/29 00:03:45;;;;;;;0.32;0.20;;;;;;;18.84;69.23;102910.78;5034467;28;20350;-70
2021/09/29 00:06:10;;;;;;;0.40;0.10;;;;;;;18.81;68.26;102901.97;5034312;28;20108;-70
2021/09/29 00:08:37;;;;;;;0.25;0.13;;;;;;;18.81;67.98;102900.13;5034237;28;20100;-70
2021/09/29 00:11:02;;;;;;;1.05;0.20;;;;;;;18.88;67.01;102904.06;5036218;28;20053;-69
2021/09/29 00:13:28;;;;;;;0.38;0.20;;;;;;;18.86;67.89;102903.34;5032539;28;20055;-70
2021/09/29 00:15:54;;;;;;;0.45;0.20;;;;;;;18.82;67.88;102899.13;5036052;28;20029;-69
2021/09/29 00:18:21;;;;;;;0.20;0.20;;;;;;;18.82;68.57;102901.00;5034081;28;20457;-70
2021/09/29 00:20:46;;;;;;;0.10;0.10;;;;;;;18.79;69.33;102902.09;5034582;28;20474;-70
2021/09/29 00:23:11;;;;;;;0.20;0.20;;;;;;;18.78;70.44;102900.34;5033815;28;20721;-70
2021/09/29 00:25:37;;;;;;;0.20;0.13;;;;;;;18.79;67.55;102902.09;5033988;28;20405;-70
2021/09/29 00:28:02;;;;;;;1.27;0.20;;;;;;;18.79;70.08;102898.50;5016232;28;20018;-70
2021/09/29 00:30:31;;;;;;;0.20;0.20;;;;;;;18.79;68.82;102893.91;5033953;28;20025;-69
2021/09/29 00:33:01;;;;;;;0.45;0.30;;;;;;;18.75;70.29;102888.84;5034024;28;20025;-71
2021/09/29 00:35:27;;;;;;;0.32;0.20;;;;;;;18.80;68.16;102892.03;5033937;28;20041;-70
2021/09/29 00:37:52;;;;;;;0.85;0.35;;;;;;;18.79;68.61;102890.31;5036535;28;20106;-69
2021/09/29 00:40:17;;;;;;;0.43;0.20;;;;;;;18.76;68.86;102896.88;5033810;28;20033;-71
2021/09/29 00:43:02;;;;;;;0.43;0.20;;;;;;;18.74;69.10;102898.88;5059039;28;20073;-71
2021/09/29 00:45:27;;;;;;;0.38;0.15;;;;;;;18.75;68.95;102888.84;5048471;28;20030;-71
2021/09/29 00:47:52;;;;;;;0.35;0.20;;;;;;;18.74;69.54;102892.56;5033652;28;20025;-71
2021/09/29 00:50:18;;;;;;;0.10;0.10;;;;;;;18.74;68.35;102881.66;5033227;28;20523;-70
2021/09/29 00:52:43;;;;;;;0.52;0.20;;;;;;;18.74;69.51;102887.97;5033770;28;20468;-71
2021/09/29 00:55:13;;;;;;;0.50;0.30;;;;;;;18.72;65.89;102887.25;5033401;28;20456;-70
2021/09/29 00:57:38;;;;;;;0.35;0.10;;;;;;;18.73;69.03;102890.81;5033519;28;20029;-69
2021/09/29 01:00:06;;;;;;;0.10;0.03;;;;;;;18.73;69.89;102886.25;5033395;28;20072;-71
2021/09/29 01:02:31;;;;;;;0.52;0.30;;;;;;;18.68;64.43;102893.94;5034806;28;20029;-70
2021/09/29 01:04:57;;;;;;;0.30;0.22;;;;;;;18.70;69.98;102883.78;5033432;28;20025;-70
2021/09/29 01:07:27;;;;;;;0.20;0.20;;;;;;;18.67;67.43;102881.31;5033178;28;20079;-70
2021/09/29 01:10:04;;;;;;;0.57;0.20;;;;;;;18.62;65.46;102884.34;5033405;28;20030;-70
2021/09/29 01:12:51;;;;;;;0.10;0.10;;;;;;;18.70;65.99;102881.06;5045524;28;20043;-72
2021/09/29 01:15:26;;;;;;;0.28;0.20;;;;;;;18.70;70.20;102882.91;5039709;28;20038;-69
2021/09/29 01:17:56;;;;;;;0.10;0.10;;;;;;;18.67;69.50;102878.59;5033334;28;20041;-71
2021/09/29 01:20:28;;;;;;;0.52;0.10;;;;;;;18.65;69.61;102872.41;5033066;28;20029;-71
2021/09/29 01:23:11;;;;;;;0.57;0.28;;;;;;;18.62;70.36;102875.31;5033126;28;20101;-69
2021/09/29 01:25:58;;;;;;;0.38;0.20;;;;;;;18.66;68.24;102878.72;5033176;28;20033;-70
2021/09/29 01:28:29;;;;;;;0.10;0.10;;;;;;;18.68;68.16;102876.72;5037943;28;20026;-71
2021/09/29 01:30:57;;;;;;;0.82;0.10;;;;;;;18.66;65.96;102871.41;5032879;28;20389;-70
2021/09/29 01:33:24;;;;;;;0.10;0.10;;;;;;;18.70;68.57;102872.88;5032827;28;20484;-69
2021/09/29 01:35:50;;;;;;;0.98;0.20;;;;;;;18.66;70.15;102865.94;5014780;28;20113;-71
2021/09/29 01:38:16;;;;;;;0.32;0.32;;;;;;;18.63;71.66;102868.91;5032743;28;20109;-70
2021/09/29 01:40:41;;;;;;;1.02;0.20;;;;;;;18.58;67.39;102868.38;5033008;28;20053;-71
2021/09/29 01:43:07;;;;;;;0.47;0.28;;;;;;;18.60;69.22;102871.84;5032907;28;20033;-70
2021/09/29 01:45:32;;;;;;;0.95;0.17;;;;;;;18.56;69.62;102863.06;5052956;28;20045;-70
2021/09/29 01:47:57;;;;;;;0.30;0.20;;;;;;;18.58;68.42;102861.06;5033006;28;20468;-70
2021/09/29 01:50:29;;;;;;;0.68;0.30;;;;;;;18.62;68.94;102864.41;5035672;28;20041;-71
2021/09/29 01:52:57;;;;;;;0.63;0.20;;;;;;;18.62;69.76;102856.22;5032727;28;20041;-70
2021/09/29 01:55:24;;;;;;;0.30;0.20;;;;;;;18.56;69.50;102862.19;5032505;28;20141;-70
2021/09/29 01:57:50;;;;;;;0.88;0.30;;;;;;;18.57;69.51;102859.34;5033013;28;20072;-70
2021/09/29 02:00:19;;;;;;;0.20;0.10;;;;;;;18.56;68.82;102852.16;5032554;28;20021;-69
2021/09/29 02:02:44;;;;;;;0.20;0.10;;;;;;;18.58;71.34;102860.22;5015314;28;20106;-71
2021/09/29 02:05:11;;;;;;;0.30;0.22;;;;;;;18.60;70.19;102855.50;5032558;28;20128;-70
2021/09/29 02:07:38;;;;;;;0.20;0.20;;;;;;;18.55;65.50;102855.88;5032644;28;20485;-69
2021/09/29 02:10:05;;;;;;;0.10;0.10;;;;;;;18.59;67.90;102851.91;5033417;28;20029;-69
2021/09/29 02:12:31;;;;;;;0.10;0.10;;;;;;;18.60;70.44;102858.22;5033775;28;20051;-70
2021/09/29 02:14:57;;;;;;;1.25;0.15;;;;;;;18.58;69.19;102847.44;5036162;28;20026;-69
2021/09/29 02:17:23;;;;;;;0.35;0.15;;;;;;;18.59;70.03;102857.34;5032650;28;20029;-70
2021/09/29 02:19:48;;;;;;;0.28;0.20;;;;;;;18.56;68.91;102856.75;5032872;28;20029;-70
2021/09/29 02:22:17;;;;;;;0.90;0.17;;;;;;;18.58;71.01;102852.03;5032643;28;20017;-69
2021/09/29 02:24:46;;;;;;;0.52;0.20;;;;;;;18.56;68.50;102851.28;5014969;28;20028;-70
2021/09/29 02:27:13;;;;;;;0.35;0.30;;;;;;;18.52;69.41;102850.69;5032554;28;20021;-70
2021/09/29 02:29:38;;;;;;;0.82;0.25;;;;;;;18.52;68.37;102834.34;5032384;28;20018;-69
2021/09/29 02:32:11;;;;;;;0.10;0.10;;;;;;;18.58;69.41;102838.41;5036927;28;20026;-70
2021/09/29 02:34:36;;;;;;;0.10;0.10;;;;;;;18.54;70.00;102836.94;5032936;28;20025;-70
2021/09/29 02:37:02;;;;;;;0.22;0.20;;;;;;;18.53;65.73;102835.22;5032285;28;20551;-71
2021/09/29 02:39:27;;;;;;;0.47;0.15;;;;;;;18.50;66.93;102832.75;5032503;28;20044;-71
2021/09/29 02:41:53;;;;;;;0.88;0.30;;;;;;;18.50;68.04;102830.88;5014563;28;20021;-69
2021/09/29 02:44:18;;;;;;;0.20;0.10;;;;;;;18.48;69.47;102826.56;5039408;28;20014;-70
2021/09/29 02:47:04;;;;;;;0.10;0.10;;;;;;;18.51;70.24;102826.31;5059105;28;20044;-70
2021/09/29 02:49:29;;;;;;;0.25;0.20;;;;;;;18.48;69.99;102827.41;5018305;28;20026;-69
2021/09/29 02:51:55;;;;;;;0.85;0.20;;;;;;;18.50;68.75;102780.97;5035997;28;20025;-71
2021/09/29 02:54:21;;;;;;;0.52;0.10;;;;;;;18.46;70.24;102783.06;5035592;28;20025;-71
2021/09/29 02:56:46;;;;;;;0.38;0.20;;;;;;;18.48;66.59;102758.47;5037451;28;20029;-70
2021/09/29 02:59:12;;;;;;;0.40;0.32;;;;;;;18.46;69.45;102850.28;5035456;28;20028;-71
2021/09/29 03:01:38;;;;;;;0.22;0.10;;;;;;;18.46;65.10;102823.06;5017779;28;20030;-71
2021/09/29 03:04:04;;;;;;;0.57;0.10;;;;;;;18.49;66.86;102817.38;5035665;28;20029;-70
2021/09/29 03:06:29;;;;;;;0.15;0.15;;;;;;;18.52;67.76;102811.69;5035492;28;20469;-70
2021/09/29 03:08:54;;;;;;;0.20;0.10;;;;;;;18.51;70.95;102809.94;5017757;28;20025;-70
2021/09/29 03:11:20;;;;;;;0.20;0.10;;;;;;;18.51;69.16;102804.50;5035180;28;20072;-70
2021/09/29 03:13:47;;;;;;;0.22;0.20;;;;;;;18.50;70.81;102786.44;5035449;28;20032;-70
2021/09/29 03:19:35;;;;;;;0.28;0.10;;;;;;;18.44;67.04;102786.91;5047710;28;20095;-71
2021/09/29 03:22:01;;;;;;;0.47;0.10;;;;;;;18.45;68.70;102789.50;5035328;28;20037;-69
2021/09/29 03:24:27;;;;;;;0.85;0.10;;;;;;;18.49;71.43;102779.25;5034951;28;20018;-71
2021/09/29 03:26:53;;;;;;;0.10;0.03;;;;;;;18.44;68.74;102779.59;5035405;28;20039;-71
2021/09/29 03:29:18;;;;;;;0.10;0.10;;;;;;;18.43;71.17;102782.47;5035160;28;20023;-69
2021/09/29 03:31:43;;;;;;;0.10;0.10;;;;;;;18.42;70.78;102784.31;5035230;28;20468;-70
2021/09/29 03:34:09;;;;;;;0.10;0.10;;;;;;;18.43;65.97;102774.28;5035126;28;20519;-71
2021/09/29 03:36:35;;;;;;;0.45;0.20;;;;;;;18.44;71.05;102781.47;5035177;28;20021;-69
2021/09/29 03:39:00;;;;;;;0.10;0.10;;;;;;;18.46;68.93;102779.47;5034804;28;20092;-70
2021/09/29 03:41:27;;;;;;;0.10;0.10;;;;;;;18.48;69.67;102777.53;5034985;28;20386;-70
2021/09/29 03:43:53;;;;;;;0.60;0.20;;;;;;;18.44;68.93;102776.88;5039557;28;20036;-69
2021/09/29 03:46:19;;;;;;;0.28;0.10;;;;;;;18.43;70.21;102769.72;5034964;28;20021;-70
2021/09/29 03:48:44;;;;;;;0.10;0.10;;;;;;;18.43;67.99;102763.41;5034950;28;20021;-70
2021/09/29 03:51:23;;;;;;;0.00;0.00;;;;;;;18.44;70.92;102770.56;5046024;28;20073;-70
2021/09/29 03:53:48;;;;;;;0.47;0.20;;;;;;;18.43;71.85;102768.84;5034881;28;20037;-71
2021/09/29 03:56:14;;;;;;;0.45;0.17;;;;;;;18.41;70.61;102765.38;5050087;28;20021;-70
2021/09/29 03:58:39;;;;;;;0.20;0.10;;;;;;;18.40;66.51;102763.66;5034033;28;20355;-70
2021/09/29 04:01:04;;;;;;;0.50;0.15;;;;;;;18.43;69.52;102763.41;5034622;28;20057;-70
2021/09/29 04:03:30;;;;;;;0.70;0.20;;;;;;;18.47;70.60;102751.25;5034666;28;20071;-70
2021/09/29 04:05:55;;;;;;;0.40;0.10;;;;;;;18.51;71.51;102750.03;5034685;28;20468;-70
2021/09/29 04:08:20;;;;;;;1.65;0.30;;;;;;;18.72;66.13;102751.00;5038826;28;20029;-71
2021/09/29 04:10:46;;;;;;;0.30;0.20;;;;;;;18.84;68.24;102751.84;5034270;28;20052;-70
2021/09/29 04:13:11;;;;;;;0.47;0.10;;;;;;;18.92;67.38;102752.91;5034123;28;20033;-70
2021/09/29 04:15:36;;;;;;;0.40;0.20;;;;;;;19.04;66.51;102758.31;5034546;28;20036;-70
2021/09/29 04:18:02;;;;;;;0.43;0.10;;;;;;;19.13;64.77;102758.38;5034275;28;20044;-69
2021/09/29 04:20:28;;;;;;;0.10;0.05;;;;;;;19.22;65.55;102754.03;5034563;28;20025;-70
2021/09/29 04:22:54;;;;;;;0.55;0.10;;;;;;;19.33;64.95;102753.13;5034146;28;20021;-69
2021/09/29 04:25:20;;;;;;;0.55;0.30;;;;;;;19.44;62.49;102759.34;5034000;28;20029;-70
2021/09/29 04:27:45;;;;;;;0.03;0.03;;;;;;;19.48;63.46;102752.66;5034017;28;20041;-70
2021/09/29 04:30:14;;;;;;;0.20;0.20;;;;;;;19.49;62.87;102762.56;5016513;28;20464;-68
2021/09/29 04:32:39;;;;;;;0.52;0.20;;;;;;;19.47;64.43;102760.94;5037288;28;20021;-70
2021/09/29 04:35:05;;;;;;;2.03;0.55;;;;;;;19.47;64.16;102764.53;5033598;28;20036;-69
2021/09/29 04:37:31;;;;;;;0.52;0.10;;;;;;;19.52;62.21;102761.44;5034099;28;20040;-70
2021/09/29 04:39:56;;;;;;;0.30;0.08;;;;;;;19.59;64.10;102759.06;5033660;28;20021;-70
2021/09/29 04:42:21;;;;;;;0.38;0.00;;;;;;;19.64;63.02;102756.78;5033899;28;20464;-69
2021/09/29 04:44:47;;;;;;;0.10;0.08;;;;;;;19.68;63.64;102759.13;5033894;28;20021;-70
2021/09/29 04:47:12;;;;;;;1.33;0.10;;;;;;;19.64;62.88;102757.66;5033846;28;20498;-71
2021/09/29 04:49:37;;;;;;;0.00;0.00;;;;;;;19.63;62.57;102755.94;5033865;28;20381;-70
2021/09/29 04:52:08;;;;;;;0.13;0.10;;;;;;;19.68;63.32;102769.19;5057933;28;20009;-72
2021/09/29 04:54:33;;;;;;;0.80;0.17;;;;;;;19.74;62.43;102768.66;5039599;28;20029;-70
2021/09/29 04:56:59;;;;;;;1.02;0.10;;;;;;;19.77;63.59;102757.44;5033451;28;20067;-69
2021/09/29 04:59:24;;;;;;;1.80;0.10;;;;;;;19.77;63.88;102762.91;5033755;28;20353;-70
2021/09/29 05:01:49;;;;;;;0.85;0.20;;;;;;;19.76;63.65;102750.28;5033543;28;20376;-70
2021/09/29 05:04:15;;;;;;;1.02;0.20;;;;;;;19.82;64.48;102755.22;5033434;28;20027;-69
2021/09/29 05:06:41;;;;;;;0.20;0.13;;;;;;;19.82;65.00;102744.28;5033435;28;20029;-70
2021/09/29 05:09:08;;;;;;;0.20;0.10;;;;;;;19.80;64.56;102751.72;5033307;28;20017;-70
2021/09/29 05:11:49;;;;;;;0.25;0.10;;;;;;;19.84;62.68;102753.19;5032340;28;20046;-69
2021/09/29 05:14:15;;;;;;;0.32;0.10;;;;;;;19.82;63.80;102749.75;5033256;28;20463;-70
2021/09/29 05:16:41;;;;;;;0.00;0.00;;;;;;;19.88;63.76;102754.66;5033436;28;20033;-69
2021/09/29 05:19:06;;;;;;;0.10;0.10;;;;;;;19.86;63.75;102755.78;5022734;28;20078;-70
2021/09/29 05:21:32;;;;;;;0.45;0.20;;;;;;;19.86;64.44;102745.75;5053222;28;20021;-70
2021/09/29 05:23:58;;;;;;;0.95;0.20;;;;;;;19.90;63.72;102749.91;5047042;28;20073;-69
2021/09/29 05:26:23;;;;;;;0.40;0.03;;;;;;;19.90;64.56;102741.72;5053400;28;20065;-70
2021/09/29 05:29:22;;;;;;;0.20;0.20;;;;;;;20.00;62.87;102739.06;5059190;28;20010;-70
2021/09/29 05:31:47;;;;;;;0.55;0.10;;;;;;;19.93;63.18;102746.03;4933939;29;20044;-70
2021/09/29 05:34:13;;;;;;;0.22;0.17;;;;;;;19.94;63.25;102732.25;4933286;29;20491;-70
2021/09/29 05:36:40;;;;;;;0.20;0.13;;;;;;;19.98;62.46;102735.56;4933844;29;20043;-69
2021/09/29 05:39:06;;;;;;;0.30;0.10;;;;;;;19.94;64.00;102735.00;4933457;29;20495;-72
2021/09/29 05:41:31;;;;;;;0.10;0.10;;;;;;;19.94;62.98;102731.41;4933774;29;20044;-70
2021/09/29 05:43:57;;;;;;;0.30;0.25;;;;;;;19.93;64.76;102736.00;4936577;29;20036;-69
2021/09/29 05:46:22;;;;;;;1.23;0.30;;;;;;;19.95;63.70;102739.44;4933639;29;20443;-71
2021/09/29 05:48:48;;;;;;;0.15;0.10;;;;;;;19.94;63.51;102737.72;4933378;29;20083;-70
2021/09/29 05:51:13;;;;;;;1.10;0.20;;;;;;;19.96;63.57;102734.84;4933172;29;20499;-69
2021/09/29 05:53:38;;;;;;;0.45;0.10;;;;;;;19.95;63.06;102730.41;4933844;29;20050;-70
2021/09/29 05:56:04;;;;;;;0.30;0.10;;;;;;;19.98;66.45;102730.09;4943221;29;20282;-70
2021/09/29 05:59:06;;;;;;;0.80;0.10;;;;;;;19.97;64.68;102740.16;4960284;29;20024;-70
2021/09/29 06:01:33;;;;;;;0.43;0.30;;;;;;;19.96;63.59;102727.53;4933537;29;20123;-70
2021/09/29 06:03:58;;;;;;;0.20;0.10;;;;;;;19.99;63.54;102732.72;4935438;29;20034;-69
2021/09/29 06:06:23;;;;;;;0.55;0.20;;;;;;;20.01;64.36;102727.13;4942759;28;20032;-71
2021/09/29 06:08:49;;;;;;;0.10;0.08;;;;;;;20.01;63.33;102728.00;5015142;28;20412;-70
2021/09/29 06:11:14;;;;;;;0.35;0.15;;;;;;;20.06;63.33;102736.63;5032533;28;20411;-70
2021/09/29 06:13:39;;;;;;;1.50;0.20;;;;;;;20.05;63.52;102728.59;5032737;28;20460;-71
2021/09/29 06:16:09;;;;;;;0.20;0.00;;;;;;;20.03;64.00;102728.72;5032426;28;20029;-70
2021/09/29 06:18:36;;;;;;;0.20;0.10;;;;;;;20.02;64.92;102724.25;5014581;28;20112;-69
2021/09/29 06:21:01;;;;;;;0.25;0.10;;;;;;;20.00;64.17;102720.81;5024165;28;20033;-71
2021/09/29 06:23:27;;;;;;;0.28;0.10;;;;;;;20.08;63.55;102741.97;5016224;28;20048;-70
2021/09/29 06:25:52;;;;;;;1.08;0.20;;;;;;;20.14;63.78;102745.00;5035951;28;20037;-69
2021/09/29 06:31:40;;;;;;;0.10;0.10;;;;;;;20.08;65.04;102734.63;5031396;28;20052;-69
2021/09/29 06:34:05;;;;;;;0.43;0.15;;;;;;;20.09;63.89;102741.81;5035294;28;20021;-71
2021/09/29 06:36:31;;;;;;;0.55;0.10;;;;;;;20.09;64.31;102739.09;5030683;28;20026;-70
2021/09/29 06:38:56;;;;;;;0.20;0.10;;;;;;;20.07;63.77;102738.34;5016210;28;20484;-70
2021/09/29 06:41:21;;;;;;;0.52;0.00;;;;;;;20.13;62.94;102735.06;5016335;28;20061;-71
2021/09/29 06:43:47;;;;;;;0.28;0.10;;;;;;;20.08;64.64;102737.34;4999155;28;20026;-71
2021/09/29 06:46:12;;;;;;;0.20;0.10;;;;;;;20.12;62.25;102740.66;5023940;28;20029;-69
2021/09/29 06:48:38;;;;;;;0.43;0.10;;;;;;;20.16;63.70;102742.16;5018180;28;20021;-71
2021/09/29 06:51:15;;;;;;;0.20;0.10;;;;;;;20.16;64.31;102735.81;5024005;28;20036;-71
2021/09/29 06:53:40;;;;;;;0.20;0.10;;;;;;;20.13;64.71;102740.53;5037205;28;20025;-69
2021/09/29 06:56:06;;;;;;;0.00;0.00;;;;;;;20.14;63.93;102739.53;5018029;28;20025;-71
2021/09/29 06:58:32;;;;;;;0.20;0.10;;;;;;;20.20;65.09;102738.13;5021576;28;20565;-70
2021/09/29 07:00:57;;;;;;;0.30;0.20;;;;;;;20.11;64.39;102749.88;5046820;28;20018;-70
2021/09/29 07:04:14;;;;;;;0.13;0.10;;;;;;;20.17;65.41;102740.28;5050813;28;20077;-70
2021/09/29 07:06:40;;;;;;;1.20;0.20;;;;;;;20.13;64.11;102736.94;5032411;28;20025;-71
2021/09/29 07:09:05;;;;;;;0.10;0.10;;;;;;;20.14;64.57;102734.06;5033176;28;20100;-70
2021/09/29 07:11:30;;;;;;;0.10;0.10;;;;;;;20.14;64.16;102750.44;5033650;28;20056;-70
2021/09/29 07:13:57;;;;;;;0.10;0.10;;;;;;;20.18;64.39;102742.88;5033760;28;20393;-70
2021/09/29 07:16:25;;;;;;;0.47;0.10;;;;;;;20.23;63.90;102743.31;5036542;28;20072;-71
2021/09/29 07:18:50;;;;;;;0.55;0.10;;;;;;;20.19;64.27;102746.47;5029956;28;20025;-69
2021/09/29 07:21:16;;;;;;;0.68;0.10;;;;;;;20.10;65.65;102743.53;5032831;28;20021;-71
2021/09/29 07:23:42;;;;;;;0.63;0.20;;;;;;;20.15;64.69;102751.31;5033977;28;20523;-70
2021/09/29 07:26:07;;;;;;;0.30;0.10;;;;;;;20.18;64.31;102742.00;5027250;28;20029;-69
2021/09/29 07:28:33;;;;;;;0.30;0.10;;;;;;;20.19;63.49;102741.88;5032814;28;20059;-71
2021/09/29 07:30:58;;;;;;;0.93;0.10;;;;;;;20.17;64.25;102738.41;5032506;28;20036;-70
2021/09/29 07:33:23;;;;;;;0.50;0.10;;;;;;;20.20;64.64;102738.13;5031120;28;20415;-69
2021/09/29 07:39:11;;;;;;;0.10;0.10;;;;;;;20.19;64.85;102741.00;5033695;28;20088;-70
2021/09/29 07:41:37;;;;;;;0.10;0.00;;;;;;;20.18;63.71;102733.81;5032901;28;20056;-71
2021/09/29 07:44:03;;;;;;;1.35;0.10;;;;;;;20.23;64.98;102742.44;5027079;28;20375;-70
2021/09/29 07:46:28;;;;;;;0.57;0.20;;;;;;;20.22;65.24;102748.91;5030432;28;20041;-71
2021/09/29 07:48:53;;;;;;;0.77;0.20;;;;;;;20.28;66.03;102749.22;5032078;28;20063;-69
2021/09/29 07:51:19;;;;;;;0.63;0.15;;;;;;;20.31;64.51;102751.66;5031929;28;20484;-71
2021/09/29 07:53:45;;;;;;;0.22;0.10;;;;;;;20.22;65.24;102751.66;5032372;28;20514;-70
2021/09/29 07:56:11;;;;;;;0.20;0.10;;;;;;;20.23;65.02;102747.91;5032308;28;20079;-70
2021/09/29 07:58:36;;;;;;;0.20;0.10;;;;;;;20.20;65.61;102748.19;5032293;28;20488;-70
2021/09/29 08:01:01;;;;;;;0.45;0.08;;;;;;;20.27;65.90;102754.81;5034171;28;20466;-71
2021/09/29 08:03:28;;;;;;;0.20;0.17;;;;;;;20.24;64.52;102741.44;5052647;28;20020;-70
2021/09/29 08:05:57;;;;;;;0.10;0.10;;;;;;;20.24;64.59;102744.16;5032706;28;20029;-71
2021/09/29 08:08:22;;;;;;;0.28;0.10;;;;;;;20.25;64.22;102751.38;5011506;28;20063;-71
2021/09/29 08:10:47;;;;;;;0.73;0.15;;;;;;;20.22;63.89;102740.72;5030403;28;20136;-70
2021/09/29 08:13:13;;;;;;;0.17;0.10;;;;;;;20.24;64.54;102738.72;5027661;28;20648;-70
2021/09/29 08:15:38;;;;;;;0.28;0.22;;;;;;;20.22;64.68;102746.19;5031905;28;20066;-70
2021/09/29 08:18:03;;;;;;;0.50;0.20;;;;;;;20.26;64.62;102739.44;5032239;28;20068;-69
2021/09/29 08:20:33;;;;;;;1.50;0.17;;;;;;;20.30;64.73;102743.59;5032269;28;20030;-68
2021/09/29 08:23:06;;;;;;;1.58;0.35;;;;;;;20.30;64.98;102751.81;5031646;28;20025;-71
2021/09/29 08:28:32;;;;;;;0.47;0.10;;;;;;;20.28;63.06;102735.56;5028987;28;20037;-71
2021/09/29 08:31:04;;;;;;;0.52;0.20;;;;;;;20.24;64.49;102733.25;5028834;28;20105;-69
2021/09/29 08:36:19;;;;;;;0.20;0.10;;;;;;;20.20;65.52;102732.66;5027597;28;20053;-70
2021/09/29 08:39:08;;;;;;;0.30;0.10;;;;;;;20.26;63.81;102721.19;5030582;28;20049;-69
2021/09/29 08:44:23;;;;;;;0.15;0.10;;;;;;;20.26;65.50;102723.91;5029917;28;20031;-69
2021/09/29 08:47:05;;;;;;;0.10;0.00;;;;;;;20.28;63.78;102726.50;5033612;28;20087;-70
2021/09/29 08:50:04;;;;;;;0.95;0.20;;;;;;;20.28;64.33;102723.75;5027963;28;20104;-69
2021/09/29 09:16:35;;;;;;;0.30;0.20;;;;;;;20.33;64.07;102722.38;5013222;28;20036;-63
2021/09/29 09:19:04;;;;;;;0.20;0.10;;;;;;;20.36;66.30;102721.22;5016521;28;20019;-61
2021/09/29 09:21:41;;;;;;;0.60;0.22;;;;;;;20.33;64.08;102726.97;5032670;28;20021;-63
2021/09/29 09:24:35;;;;;;;0.80;0.10;;;;;;;20.33;65.01;102732.44;5022524;28;20025;-62
2021/09/29 09:27:03;;;;;;;1.27;0.20;;;;;;;20.37;63.76;102728.41;5015802;28;20045;-63
2021/09/29 09:29:30;;;;;;;1.08;0.30;;;;;;;20.31;65.74;102723.47;5031786;28;20009;-62
2021/09/29 09:32:06;;;;;;;0.57;0.20;;;;;;;20.31;64.37;102723.47;5014264;28;20028;-63
2021/09/29 09:34:32;;;;;;;0.52;0.20;;;;;;;20.31;63.82;102731.69;5023395;28;20017;-62
2021/09/29 09:36:57;;;;;;;0.13;0.10;;;;;;;20.33;64.03;102732.44;5032887;28;20024;-62
2021/09/29 09:39:25;;;;;;;0.55;0.10;;;;;;;20.30;65.87;102721.75;5016588;28;20526;-63
2021/09/29 09:41:54;;;;;;;0.70;0.17;;;;;;;20.33;64.30;102732.44;5013227;28;20108;-62
2021/09/29 09:44:26;;;;;;;0.10;0.10;;;;;;;20.28;64.11;102734.69;5013316;28;20084;-62
2021/09/29 09:47:10;;;;;;;0.35;0.10;;;;;;;20.26;64.70;102732.09;5013181;28;20492;-62
2021/09/29 09:49:54;;;;;;;0.57;0.15;;;;;;;20.23;65.23;102723.34;5013635;28;20080;-63
2021/09/29 09:52:29;;;;;;;0.35;0.10;;;;;;;20.29;64.40;102728.22;5013158;28;20036;-63
2021/09/29 09:55:14;;;;;;;1.00;0.10;;;;;;;20.32;64.36;102725.22;5013845;28;20024;-62
2021/09/29 09:57:40;;;;;;;;;;;;;;;20.28;64.34;102723.75;5035742;28;20035;-62
2021/09/29 10:00:12;;;;;;;0.38;0.15;;;;;;;20.32;65.82;102715.19;5035330;28;19920;-63
2021/09/29 10:02:46;;;;;;;0.52;0.20;;;;;;;20.30;64.33;102721.75;5036840;28;20068;-62
2021/09/29 10:05:14;;;;;;;0.20;0.10;;;;;;;20.28;65.62;102723.75;5033098;28;20026;-64
2021/09/29 10:07:40;;;;;;;0.30;0.28;;;;;;;20.33;63.07;102722.38;5036480;28;20029;-63
2021/09/29 10:23:59;;;;;;;0.10;0.10;;;;;;;20.41;64.70;102716.22;5036869;28;20031;-63
2021/09/29 10:26:25;;;;;;;0.30;0.30;;;;;;;20.38;63.80;102709.16;5036322;28;20483;-62
2021/09/29 10:29:04;;;;;;;2.10;0.20;;;;;;;20.40;63.93;102711.72;5036778;28;20064;-62
2021/09/29 10:34:24;;;;;;;0.38;0.10;;;;;;;20.31;64.30;102712.56;5036125;28;20100;-62
2021/09/29 10:42:54;;;;;;;0.28;0.08;;;;;;;20.38;63.70;102703.69;4955489;29;20551;-63
2021/09/29 10:45:54;;;;;;;0.35;0.15;;;;;;;20.37;64.26;102701.94;4955783;29;20043;-63
2021/09/29 11:05:32;;;;;;;0.32;0.17;;;;;;;20.36;64.76;102688.44;4955450;29;20043;-63
2021/09/29 11:30:18;;;;;;;0.50;0.00;;;;;;;20.41;64.80;102686.16;4933299;29;20079;-64
2021/09/29 12:09:10;;;;;;;7.35;0.75;;;;;;;-142.37;100.00;59669.53;4936394;29;20570;-83
2021/09/29 12:12:15;;;;;;;0.20;0.10;;;;;;;-142.37;100.00;59669.53;4942212;29;20039;-83
2021/09/29 12:15:03;;;;;;;;;;;;;;;-142.37;100.00;59669.53;4946606;29;20050;-74
2021/09/29 12:17:53;;;;;;;3.58;0.20;;;;;;;-142.37;100.00;59669.53;4938635;29;20297;-71
2021/09/29 12:20:53;;;;;;;0.10;0.00;;;;;;;-142.37;100.00;59669.53;4953915;28;20046;-69
2021/09/29 12:23:48;;;;;;;0.65;0.20;;;;;;;-142.37;100.00;59669.53;4936182;29;20039;-79
2021/09/29 12:26:25;;;;;;;0.75;0.20;;;;;;;-142.37;100.00;59669.53;4935951;29;20180;-80
2021/09/29 12:29:12;;;;;;;0.00;0.00;;;;;;;-142.37;100.00;59669.53;4935479;29;20028;-71
2021/09/29 12:31:50;;;;;;;0.00;0.00;;;;;;;-142.37;100.00;59669.53;4937625;28;20027;-75
2021/09/29 12:34:33;;;;;;;0.40;0.00;;;;;;;-142.37;100.00;59669.53;5018933;28;20022;-67
2021/09/29 12:37:11;;;;;;;0.22;0.10;;;;;;;-142.37;100.00;59669.53;5014989;28;20030;-76
2021/09/29 12:39:39;;;;;;;0.95;0.22;;;;;;;-142.37;100.00;59669.53;5014771;28;20022;-73
2021/09/29 12:42:06;;;;;;;0.28;0.10;;;;;;;-142.37;100.00;59669.53;5014220;28;20068;-70
2021/09/29 12:44:32;;;;;;;0.90;0.10;;;;;;;-142.37;100.00;59669.53;5015145;28;20053;-69
2021/09/29 12:47:11;;;;;;;0.30;0.10;;;;;;;-142.37;100.00;59669.53;5001563;28;20041;-71
2021/09/29 12:50:14;;;;;;;0.30;0.10;;;;;;;-142.37;100.00;59669.53;5014908;28;20491;-73
2021/09/29 12:52:49;;;;;;;0.70;0.20;;;;;;;-142.37;100.00;59669.53;4954641;29;20405;-73
2021/09/29 12:55:21;;;;;;;0.30;0.00;;;;;;;-142.37;100.00;59669.53;4954590;29;20035;-71
2021/09/29 12:57:48;;;;;;;0.28;0.20;;;;;;;-142.37;100.00;59669.53;4954534;29;20031;-74
2021/09/29 13:00:16;;;;;;;0.00;0.00;;;;;;;-142.37;100.00;59669.53;4954326;28;20031;-73
2021/09/29 13:02:43;;;;;;;0.75;0.22;;;;;;;-142.37;100.00;59669.53;4954461;28;20129;-73
2021/09/29 13:05:11;;;;;;;0.17;0.00;;;;;;;-142.37;100.00;59669.53;4957411;29;20087;-74
2021/09/29 13:07:37;;;;;;;0.85;0.10;;;;;;;-142.37;100.00;59669.53;4954422;29;20537;-72
2021/09/29 13:10:12;;;;;;;0.05;0.05;;;;;;;-142.37;100.00;59669.53;4954318;29;20027;-73
2021/09/29 13:12:37;;;;;;;0.10;0.05;;;;;;;-142.37;100.00;59669.53;4941263;29;20043;-73
2021/09/29 13:15:07;;;;;;;0.10;0.00;;;;;;;-142.37;100.00;59669.53;4935109;29;20040;-72
2021/09/29 13:17:35;;;;;;;0.40;0.00;;;;;;;-142.37;100.00;59669.53;4935083;29;20036;-73
2021/09/29 13:20:02;;;;;;;0.10;0.10;;;;;;;-142.37;100.00;59669.53;4935012;29;20383;-71
2021/09/29 13:22:30;;;;;;;0.52;0.22;;;;;;;-142.37;100.00;59669.53;4934951;29;20546;-73
2021/09/29 13:25:14;;;;;;;1.05;0.15;;;;;;;-142.37;100.00;59669.53;4935062;29;20035;-73
2021/09/29 13:39:12;;;;;;;0.68;0.28;;;;;;;-142.37;100.00;59669.53;4995197;28;20022;-73
2021/09/29 13:41:41;;;;;;;0.40;0.30;;;;;;;-142.37;100.00;59669.53;4994869;28;20469;-72
2021/09/29 13:44:07;;;;;;;0.38;0.20;;;;;;;-142.37;100.00;59669.53;4994772;28;20049;-73
2021/09/29 13:46:59;;;;;;;0.77;0.20;;;;;;;-142.37;100.00;59669.53;4994653;28;20022;-74
2021/09/29 13:49:31;;;;;;;1.20;0.30;;;;;;;-142.37;100.00;59669.53;4993496;28;20026;-74
2021/09/29 13:52:28;;;;;;;1.80;0.70;;;;;;;-142.37;100.00;59669.53;4994764;28;20034;-76
2021/09/29 13:55:29;;;;;;;0.60;0.20;;;;;;;-142.37;100.00;59669.53;4954263;29;20047;-74
2021/09/29 13:58:15;;;;;;;0.82;0.10;;;;;;;-142.37;100.00;59669.53;4953897;29;20019;-72
2021/09/29 14:30:45;;;;;;;0.73;0.13;;;;;;;-142.37;100.00;59669.53;4905651;29;20075;-73
2021/09/29 14:33:24;;;;;;;0.17;0.10;;;;;;;-142.37;100.00;59669.53;4934501;29;20028;-73
2021/09/29 14:36:04;;;;;;;0.50;0.20;;;;;;;-142.37;100.00;59669.53;4937577;29;20067;-73
2021/09/29 14:38:58;;;;;;;0.30;0.10;;;;;;;-142.37;100.00;59669.53;4936748;29;20083;-74